sensor_id;sensor_type;location;lat;lon;timestamp;pressure;altitude;pressure_sealevel;temperature;humidity
18022;BME280;9136;48.822;7.966;2023-04-07T00:01:18;100237.09;;;7.45;100.00
18022;BME280;9136;48.822;7.966;2023-04-07T00:04:06;100254.28;;;7.57;100.00
18022;BME280;9136;48.822;7.966;2023-04-07T00:06:54;100250.84;;;7.55;100.00
18022;BME280;9136;48.822;7.966;2023-04-07T00:09:42;100235.28;;;7.47;100.00
18022;BME280;9136;48.822;7.966;2023-04-07T00:12:30;100262.94;;;7.59;100.00
18022;BME280;9136;48.822;7.966;2023-04-07T00:15:19;100219.00;;;7.34;100.00
18022;BME280;9136;48.822;7.966;2023-04-07T00:18:07;100237.13;;;7.43;100.00
18022;BME280;9136;48.822;7.966;2023-04-07T00:20:55;100242.19;;;7.50;100.00
18022;BME280;9136;48.822;7.966;2023-04-07T00:23:43;100234.47;;;7.45;100.00
18022;BME280;9136;48.822;7.966;2023-04-07T00:26:33;100236.06;;;7.51;100.00
18022;BME280;9136;48.822;7.966;2023-04-07T00:29:20;100209.19;;;7.45;100.00
18022;BME280;9136;48.822;7.966;2023-04-07T00:32:10;100212.63;;;7.47;100.00
18022;BME280;9136;48.822;7.966;2023-04-07T00:34:58;100217.75;;;7.54;100.00
18022;BME280;9136;48.822;7.966;2023-04-07T00:37:45;100196.88;;;7.51;100.00
18022;BME280;9136;48.822;7.966;2023-04-07T00:40:33;100208.03;;;7.59;100.00
18022;BME280;9136;48.822;7.966;2023-04-07T00:43:21;100226.06;;;7.71;100.00
18022;BME280;9136;48.822;7.966;2023-04-07T00:46:10;100208.03;;;7.59;100.00
18022;BME280;9136;48.822;7.966;2023-04-07T00:49:00;100199.44;;;7.52;100.00
18022;BME280;9136;48.822;7.966;2023-04-07T00:51:48;100197.78;;;7.50;100.00
18022;BME280;9136;48.822;7.966;2023-04-07T00:54:37;100184.84;;;7.43;100.00
18022;BME280;9136;48.822;7.966;2023-04-07T00:57:25;100202.88;;;7.56;100.00
18022;BME280;9136;48.822;7.966;2023-04-07T01:00:14;100186.50;;;7.47;100.00
18022;BME280;9136;48.822;7.966;2023-04-07T01:03:06;100162.44;;;7.30;100.00
18022;BME280;9136;48.822;7.966;2023-04-07T01:06:00;100189.28;;;7.38;100.00
18022;BME280;9136;48.822;7.966;2023-04-07T01:08:52;100170.44;;;7.24;100.00
18022;BME280;9136;48.822;7.966;2023-04-07T01:11:43;100191.34;;;7.24;100.00
18022;BME280;9136;48.822;7.966;2023-04-07T01:14:39;100176.91;;;7.03;100.00
18022;BME280;9136;48.822;7.966;2023-04-07T01:17:27;100189.94;;;7.06;100.00
18022;BME280;9136;48.822;7.966;2023-04-07T01:20:19;100145.00;;;6.87;100.00
18022;BME280;9136;48.822;7.966;2023-04-07T01:23:16;100181.91;;;7.14;100.00
18022;BME280;9136;48.822;7.966;2023-04-07T01:26:17;100168.28;;;7.00;100.00
18022;BME280;9136;48.822;7.966;2023-04-07T01:29:31;100142.25;;;6.95;100.00
18022;BME280;9136;48.822;7.966;2023-04-07T01:32:21;100141.38;;;6.95;100.00
18022;BME280;9136;48.822;7.966;2023-04-07T01:35:11;100188.81;;;7.18;100.00
18022;BME280;9136;48.822;7.966;2023-04-07T01:38:02;100164.53;;;7.13;100.00
18022;BME280;9136;48.822;7.966;2023-04-07T01:40:51;100152.50;;;7.04;100.00
18022;BME280;9136;48.822;7.966;2023-04-07T01:43:41;100177.38;;;7.25;100.00
18022;BME280;9136;48.822;7.966;2023-04-07T01:46:31;100153.19;;;7.15;100.00
18022;BME280;9136;48.822;7.966;2023-04-07T01:49:24;100168.72;;;7.22;100.00
18022;BME280;9136;48.822;7.966;2023-04-07T01:52:12;100154.91;;;7.16;100.00
18022;BME280;9136;48.822;7.966;2023-04-07T01:55:01;100141.06;;;7.11;100.00
18022;BME280;9136;48.822;7.966;2023-04-07T01:57:52;100144.41;;;7.18;100.00
18022;BME280;9136;48.822;7.966;2023-04-07T02:00:40;100143.69;;;7.10;100.00
18022;BME280;9136;48.822;7.966;2023-04-07T02:03:34;100162.78;;;7.15;100.00
18022;BME280;9136;48.822;7.966;2023-04-07T02:06:31;100143.91;;;6.99;100.00
18022;BME280;9136;48.822;7.966;2023-04-07T02:09:20;100149.03;;;7.05;100.00
18022;BME280;9136;48.822;7.966;2023-04-07T02:12:11;100149.94;;;7.03;100.00
18022;BME280;9136;48.822;7.966;2023-04-07T02:14:59;100137.91;;;6.94;100.00
18022;BME280;9136;48.822;7.966;2023-04-07T02:17:51;100149.03;;;7.04;100.00
18022;BME280;9136;48.822;7.966;2023-04-07T02:20:41;100147.28;;;7.06;100.00
18022;BME280;9136;48.822;7.966;2023-04-07T02:23:31;100135.16;;;7.02;100.00
18022;BME280;9136;48.822;7.966;2023-04-07T02:26:21;100131.66;;;7.03;100.00
18022;BME280;9136;48.822;7.966;2023-04-07T02:29:09;100120.59;;;6.90;100.00
18022;BME280;9136;48.822;7.966;2023-04-07T02:31:56;100128.38;;;6.92;100.00
18022;BME280;9136;48.822;7.966;2023-04-07T02:34:45;100117.25;;;6.82;100.00
18022;BME280;9136;48.822;7.966;2023-04-07T02:37:35;100114.56;;;6.86;100.00
18022;BME280;9136;48.822;7.966;2023-04-07T02:40:23;100118.78;;;6.94;100.00
18022;BME280;9136;48.822;7.966;2023-04-07T02:43:11;100125.63;;;6.99;100.00
18022;BME280;9136;48.822;7.966;2023-04-07T02:46:01;100107.53;;;6.90;100.00
18022;BME280;9136;48.822;7.966;2023-04-07T02:48:48;100124.72;;;7.02;100.00
18022;BME280;9136;48.822;7.966;2023-04-07T02:51:37;100109.31;;;6.88;100.00
18022;BME280;9136;48.822;7.966;2023-04-07T02:54:26;100121.53;;;6.87;100.00
18022;BME280;9136;48.822;7.966;2023-04-07T02:57:14;100106.31;;;6.63;100.00
18022;BME280;9136;48.822;7.966;2023-04-07T03:00:03;100122.66;;;6.73;100.00
18022;BME280;9136;48.822;7.966;2023-04-07T03:02:53;100134.72;;;6.80;100.00
18022;BME280;9136;48.822;7.966;2023-04-07T03:05:41;100115.53;;;6.81;100.00
18022;BME280;9136;48.822;7.966;2023-04-07T03:08:28;100089.81;;;6.61;100.00
18022;BME280;9136;48.822;7.966;2023-04-07T03:11:18;100088.81;;;6.68;100.00
18022;BME280;9136;48.822;7.966;2023-04-07T03:14:06;100092.34;;;6.64;100.00
18022;BME280;9136;48.822;7.966;2023-04-07T03:16:55;100101.94;;;6.64;100.00
18022;BME280;9136;48.822;7.966;2023-04-07T03:19:42;100111.50;;;6.65;100.00
18022;BME280;9136;48.822;7.966;2023-04-07T03:22:32;100092.53;;;6.55;100.00
18022;BME280;9136;48.822;7.966;2023-04-07T03:25:20;100112.34;;;6.65;100.00
18022;BME280;9136;48.822;7.966;2023-04-07T03:28:09;100113.94;;;6.74;100.00
18022;BME280;9136;48.822;7.966;2023-04-07T03:30:57;100114.75;;;6.77;100.00
18022;BME280;9136;48.822;7.966;2023-04-07T03:33:48;100131.81;;;6.94;100.00
18022;BME280;9136;48.822;7.966;2023-04-07T03:36:36;100123.19;;;6.90;100.00
18022;BME280;9136;48.822;7.966;2023-04-07T03:39:24;100104.16;;;6.83;100.00
18022;BME280;9136;48.822;7.966;2023-04-07T03:42:12;100117.09;;;6.91;100.00
18022;BME280;9136;48.822;7.966;2023-04-07T03:45:01;100123.16;;;6.92;100.00
18022;BME280;9136;48.822;7.966;2023-04-07T03:47:49;100103.41;;;6.78;100.00
18022;BME280;9136;48.822;7.966;2023-04-07T03:50:40;100095.75;;;6.69;100.00
18022;BME280;9136;48.822;7.966;2023-04-07T03:53:28;100093.06;;;6.72;100.00
18022;BME280;9136;48.822;7.966;2023-04-07T03:56:16;100111.25;;;6.78;100.00
18022;BME280;9136;48.822;7.966;2023-04-07T03:59:04;100095.81;;;6.66;100.00
18022;BME280;9136;48.822;7.966;2023-04-07T04:01:53;100090.53;;;6.69;100.00
18022;BME280;9136;48.822;7.966;2023-04-07T04:04:43;100098.16;;;6.80;100.00
18022;BME280;9136;48.822;7.966;2023-04-07T04:07:31;100115.34;;;6.92;100.00
18022;BME280;9136;48.822;7.966;2023-04-07T04:10:19;100106.72;;;6.88;100.00
18022;BME280;9136;48.822;7.966;2023-04-07T04:13:07;100103.41;;;6.78;100.00
18022;BME280;9136;48.822;7.966;2023-04-07T04:15:55;100098.69;;;6.51;100.00
18022;BME280;9136;48.822;7.966;2023-04-07T04:18:44;100102.13;;;6.53;100.00
18022;BME280;9136;48.822;7.966;2023-04-07T04:21:32;100094.47;;;6.44;100.00
18022;BME280;9136;48.822;7.966;2023-04-07T04:24:21;100129.84;;;6.60;100.00
18022;BME280;9136;48.822;7.966;2023-04-07T04:27:09;100069.56;;;6.26;100.00
18022;BME280;9136;48.822;7.966;2023-04-07T04:29:57;100090.97;;;6.45;100.00
18022;BME280;9136;48.822;7.966;2023-04-07T04:32:46;100087.56;;;6.41;100.00
18022;BME280;9136;48.822;7.966;2023-04-07T04:35:36;100102.09;;;6.54;100.00
18022;BME280;9136;48.822;7.966;2023-04-07T04:38:27;100112.34;;;6.65;100.00
18022;BME280;9136;48.822;7.966;2023-04-07T04:41:16;100096.09;;;6.51;100.00
18022;BME280;9136;48.822;7.966;2023-04-07T04:44:04;100086.66;;;6.44;100.00
18022;BME280;9136;48.822;7.966;2023-04-07T04:46:52;100115.25;;;6.50;100.00
18022;BME280;9136;48.822;7.966;2023-04-07T04:49:39;100078.09;;;6.36;100.00
18022;BME280;9136;48.822;7.966;2023-04-07T04:52:29;100109.16;;;6.49;100.00
18022;BME280;9136;48.822;7.966;2023-04-07T04:55:18;100103.91;;;6.51;100.00
18022;BME280;9136;48.822;7.966;2023-04-07T04:58:06;100108.09;;;6.61;100.00
18022;BME280;9136;48.822;7.966;2023-04-07T05:00:54;100091.63;;;6.56;100.00
18022;BME280;9136;48.822;7.966;2023-04-07T05:03:44;100081.09;;;6.62;100.00
18022;BME280;9136;48.822;7.966;2023-04-07T05:06:34;100107.81;;;6.75;100.00
18022;BME280;9136;48.822;7.966;2023-04-07T05:09:23;100112.97;;;6.79;100.00
18022;BME280;9136;48.822;7.966;2023-04-07T05:12:12;100115.44;;;6.87;100.00
18022;BME280;9136;48.822;7.966;2023-04-07T05:15:01;100117.88;;;6.95;100.00
18022;BME280;9136;48.822;7.966;2023-04-07T05:17:48;100077.34;;;6.75;100.00
18022;BME280;9136;48.822;7.966;2023-04-07T05:20:36;100081.72;;;6.76;100.00
18022;BME280;9136;48.822;7.966;2023-04-07T05:23:25;100101.34;;;6.96;100.00
18022;BME280;9136;48.822;7.966;2023-04-07T05:26:15;100090.03;;;6.94;100.00
18022;BME280;9136;48.822;7.966;2023-04-07T05:29:02;100094.28;;;6.99;100.00
18022;BME280;9136;48.822;7.966;2023-04-07T05:31:50;100114.75;;;7.21;100.00
18022;BME280;9136;48.822;7.966;2023-04-07T05:34:38;100119.91;;;7.24;100.00
18022;BME280;9136;48.822;7.966;2023-04-07T05:37:26;100105.13;;;7.23;100.00
18022;BME280;9136;48.822;7.966;2023-04-07T05:40:14;100109.63;;;7.16;100.00
18022;BME280;9136;48.822;7.966;2023-04-07T05:43:03;100097.41;;;7.18;100.00
18022;BME280;9136;48.822;7.966;2023-04-07T05:45:53;100106.00;;;7.22;100.00
18022;BME280;9136;48.822;7.966;2023-04-07T05:48:40;100092.13;;;7.20;100.00
18022;BME280;9136;48.822;7.966;2023-04-07T05:51:28;100076.41;;;7.21;100.00
18022;BME280;9136;48.822;7.966;2023-04-07T05:54:16;100104.94;;;7.32;100.00
18022;BME280;9136;48.822;7.966;2023-04-07T05:57:04;100097.81;;;7.38;100.00
18022;BME280;9136;48.822;7.966;2023-04-07T05:59:54;100086.56;;;7.36;100.00
18022;BME280;9136;48.822;7.966;2023-04-07T06:02:41;100075.31;;;7.31;100.00
18022;BME280;9136;48.822;7.966;2023-04-07T06:05:29;100100.06;;;7.55;100.00
18022;BME280;9136;48.822;7.966;2023-04-07T06:08:17;100092.19;;;7.57;100.00
18022;BME280;9136;48.822;7.966;2023-04-07T06:11:07;100066.19;;;7.51;100.00
18022;BME280;9136;48.822;7.966;2023-04-07T06:13:56;100071.47;;;7.49;100.00
18022;BME280;9136;48.822;7.966;2023-04-07T06:16:46;100081.22;;;7.41;100.00
18022;BME280;9136;48.822;7.966;2023-04-07T06:19:34;100112.72;;;7.35;100.00
18022;BME280;9136;48.822;7.966;2023-04-07T06:22:23;100093.53;;;7.36;100.00
18022;BME280;9136;48.822;7.966;2023-04-07T06:25:14;100085.69;;;7.36;100.00
18022;BME280;9136;48.822;7.966;2023-04-07T06:28:01;100122.63;;;7.59;100.00
18022;BME280;9136;48.822;7.966;2023-04-07T06:30:49;100087.06;;;7.54;100.00
18022;BME280;9136;48.822;7.966;2023-04-07T06:33:40;100120.38;;;7.81;100.00
18022;BME280;9136;48.822;7.966;2023-04-07T06:36:28;100125.19;;;8.01;100.00
18022;BME280;9136;48.822;7.966;2023-04-07T06:39:16;100100.78;;;7.99;100.00
18022;BME280;9136;48.822;7.966;2023-04-07T06:42:04;100094.13;;;8.23;100.00
18022;BME280;9136;48.822;7.966;2023-04-07T06:44:54;100084.75;;;8.48;100.00
18022;BME280;9136;48.822;7.966;2023-04-07T06:47:42;100119.31;;;8.94;100.00
18022;BME280;9136;48.822;7.966;2023-04-07T06:50:31;100114.25;;;9.18;100.00
18022;BME280;9136;48.822;7.966;2023-04-07T06:53:21;100125.28;;;9.30;100.00
18022;BME280;9136;48.822;7.966;2023-04-07T06:56:10;100119.03;;;9.34;100.00
18022;BME280;9136;48.822;7.966;2023-04-07T06:58:59;100109.69;;;9.25;100.00
18022;BME280;9136;48.822;7.966;2023-04-07T07:01:47;100115.66;;;9.30;100.00
18022;BME280;9136;48.822;7.966;2023-04-07T07:04:36;100117.59;;;9.24;100.00
18022;BME280;9136;48.822;7.966;2023-04-07T07:07:26;100142.53;;;9.38;100.00
18022;BME280;9136;48.822;7.966;2023-04-07T07:10:15;100130.09;;;9.14;100.00
18022;BME280;9136;48.822;7.966;2023-04-07T07:13:05;100122.34;;;9.11;100.00
18022;BME280;9136;48.822;7.966;2023-04-07T07:15:53;100131.00;;;8.82;100.00
18022;BME280;9136;48.822;7.966;2023-04-07T07:18:41;100130.25;;;8.77;100.00
18022;BME280;9136;48.822;7.966;2023-04-07T07:21:29;100125.34;;;8.65;100.00
18022;BME280;9136;48.822;7.966;2023-04-07T07:24:19;100151.25;;;8.75;100.00
18022;BME280;9136;48.822;7.966;2023-04-07T07:27:08;100142.09;;;8.59;100.00
18022;BME280;9136;48.822;7.966;2023-04-07T07:29:56;100119.81;;;8.43;100.00
18022;BME280;9136;48.822;7.966;2023-04-07T07:32:44;100120.81;;;8.37;100.00
18022;BME280;9136;48.822;7.966;2023-04-07T07:35:32;100168.38;;;8.54;100.00
18022;BME280;9136;48.822;7.966;2023-04-07T07:38:22;100124.47;;;8.28;100.00
18022;BME280;9136;48.822;7.966;2023-04-07T07:41:11;100160.69;;;8.47;100.00
18022;BME280;9136;48.822;7.966;2023-04-07T07:43:59;100157.13;;;8.51;100.00
18022;BME280;9136;48.822;7.966;2023-04-07T07:46:47;100142.56;;;8.39;100.00
18022;BME280;9136;48.822;7.966;2023-04-07T07:49:34;100134.75;;;8.38;100.00
18022;BME280;9136;48.822;7.966;2023-04-07T07:52:22;100157.09;;;8.52;100.00
18022;BME280;9136;48.822;7.966;2023-04-07T07:55:10;100161.09;;;8.66;100.00
18022;BME280;9136;48.822;7.966;2023-04-07T07:58:00;100144.44;;;8.70;100.00
18022;BME280;9136;48.822;7.966;2023-04-07T08:00:47;100128.56;;;8.74;100.00
18022;BME280;9136;48.822;7.966;2023-04-07T08:03:36;100142.28;;;8.84;100.00
18022;BME280;9136;48.822;7.966;2023-04-07T08:13:24;100152.94;;;9.69;100.00
18022;BME280;9136;48.822;7.966;2023-04-07T08:16:11;100155.94;;;9.87;100.00
18022;BME280;9136;48.822;7.966;2023-04-07T08:18:59;100135.88;;;9.84;100.00
18022;BME280;9136;48.822;7.966;2023-04-07T08:21:50;100167.47;;;10.09;100.00
18022;BME280;9136;48.822;7.966;2023-04-07T08:24:38;100166.44;;;10.13;100.00
18022;BME280;9136;48.822;7.966;2023-04-07T08:27:27;100167.47;;;10.09;100.00
18022;BME280;9136;48.822;7.966;2023-04-07T08:30:16;100154.16;;;10.15;100.00
18022;BME280;9136;48.822;7.966;2023-04-07T08:33:06;100194.66;;;10.63;100.00
18022;BME280;9136;48.822;7.966;2023-04-07T08:35:54;100186.00;;;10.32;100.00
18022;BME280;9136;48.822;7.966;2023-04-07T08:38:42;100158.69;;;10.10;100.00
18022;BME280;9136;48.822;7.966;2023-04-07T08:41:34;100162.59;;;9.97;100.00
18022;BME280;9136;48.822;7.966;2023-04-07T08:44:51;100199.06;;;10.06;100.00
18022;BME280;9136;48.822;7.966;2023-04-07T08:47:57;100201.69;;;10.06;100.00
18022;BME280;9136;48.822;7.966;2023-04-07T08:50:48;100192.94;;;9.78;100.00
18022;BME280;9136;48.822;7.966;2023-04-07T08:53:41;100179.06;;;9.43;100.00
18022;BME280;9136;48.822;7.966;2023-04-07T08:56:34;100172.84;;;9.47;100.00
18022;BME280;9136;48.822;7.966;2023-04-07T08:59:26;100190.56;;;9.39;100.00
18022;BME280;9136;48.822;7.966;2023-04-07T09:02:15;100201.47;;;9.24;100.00
18022;BME280;9136;48.822;7.966;2023-04-07T09:05:06;100199.44;;;9.33;100.00
18022;BME280;9136;48.822;7.966;2023-04-07T09:07:55;100192.66;;;9.57;100.00
18022;BME280;9136;48.822;7.966;2023-04-07T09:10:42;100197.44;;;9.72;100.00
18022;BME280;9136;48.822;7.966;2023-04-07T09:13:30;100199.13;;;10.04;100.00
18022;BME280;9136;48.822;7.966;2023-04-07T09:16:19;100219.13;;;10.37;100.00
18022;BME280;9136;48.822;7.966;2023-04-07T09:19:07;100197.38;;;10.33;100.00
18022;BME280;9136;48.822;7.966;2023-04-07T09:21:58;100219.84;;;10.68;100.00
18022;BME280;9136;48.822;7.966;2023-04-07T09:24:50;100195.44;;;10.91;100.00
18022;BME280;9136;48.822;7.966;2023-04-07T09:27:57;100212.88;;;10.94;100.00
18022;BME280;9136;48.822;7.966;2023-04-07T09:30:54;100214.31;;;11.27;100.00
18022;BME280;9136;48.822;7.966;2023-04-07T09:33:42;100226.59;;;11.27;100.00
18022;BME280;9136;48.822;7.966;2023-04-07T09:36:40;100209.03;;;11.27;100.00
18022;BME280;9136;48.822;7.966;2023-04-07T09:39:32;100195.75;;;11.32;100.00
18022;BME280;9136;48.822;7.966;2023-04-07T09:42:22;100227.84;;;11.90;100.00
18022;BME280;9136;48.822;7.966;2023-04-07T09:45:11;100219.31;;;11.10;100.00
18022;BME280;9136;48.822;7.966;2023-04-07T09:48:04;100207.06;;;11.34;100.00
18022;BME280;9136;48.822;7.966;2023-04-07T09:51:04;100223.66;;;12.06;100.00
18022;BME280;9136;48.822;7.966;2023-04-07T09:53:52;100225.91;;;11.70;100.00
18022;BME280;9136;48.822;7.966;2023-04-07T09:56:41;100213.84;;;12.11;100.00
18022;BME280;9136;48.822;7.966;2023-04-07T09:59:32;100204.81;;;12.60;100.00
18022;BME280;9136;48.822;7.966;2023-04-07T10:02:22;100204.56;;;12.45;100.00
18022;BME280;9136;48.822;7.966;2023-04-07T10:05:13;100199.63;;;12.37;100.00
18022;BME280;9136;48.822;7.966;2023-04-07T10:08:02;100185.66;;;12.57;100.00
18022;BME280;9136;48.822;7.966;2023-04-07T10:10:50;100197.47;;;12.89;100.00
18022;BME280;9136;48.822;7.966;2023-04-07T10:13:45;100183.72;;;13.23;100.00
18022;BME280;9136;48.822;7.966;2023-04-07T10:16:37;100199.19;;;13.51;100.00
18022;BME280;9136;48.822;7.966;2023-04-07T10:19:33;100182.78;;;12.41;100.00
18022;BME280;9136;48.822;7.966;2023-04-07T10:22:25;100182.34;;;13.54;100.00
18022;BME280;9136;48.822;7.966;2023-04-07T10:25:22;100192.81;;;12.74;100.00
18022;BME280;9136;48.822;7.966;2023-04-07T10:28:13;100173.16;;;13.03;100.00
18022;BME280;9136;48.822;7.966;2023-04-07T10:31:11;100192.03;;;13.53;100.00
18022;BME280;9136;48.822;7.966;2023-04-07T10:34:00;100192.41;;;13.64;100.00
18022;BME280;9136;48.822;7.966;2023-04-07T10:37:10;100174.34;;;13.55;100.00
18022;BME280;9136;48.822;7.966;2023-04-07T10:40:26;100205.03;;;14.14;96.05
18022;BME280;9136;48.822;7.966;2023-04-07T10:43:39;100175.06;;;13.96;94.09
18022;BME280;9136;48.822;7.966;2023-04-07T10:47:07;100196.94;;;13.81;100.00
18022;BME280;9136;48.822;7.966;2023-04-07T10:50:20;100195.00;;;13.27;100.00
18022;BME280;9136;48.822;7.966;2023-04-07T10:53:16;100168.59;;;13.27;100.00
18022;BME280;9136;48.822;7.966;2023-04-07T10:56:33;100165.25;;;13.23;100.00
18022;BME280;9136;48.822;7.966;2023-04-07T11:00:18;100202.81;;;13.08;100.00
18022;BME280;9136;48.822;7.966;2023-04-07T11:03:30;100181.78;;;13.06;100.00
18022;BME280;9136;48.822;7.966;2023-04-07T11:06:22;100194.66;;;12.94;97.74
18022;BME280;9136;48.822;7.966;2023-04-07T11:09:18;100171.09;;;12.69;97.06
18022;BME280;9136;48.822;7.966;2023-04-07T11:12:26;100180.78;;;12.68;92.61
18022;BME280;9136;48.822;7.966;2023-04-07T11:15:20;100176.13;;;12.75;93.10
18022;BME280;9136;48.822;7.966;2023-04-07T11:18:30;100162.13;;;12.73;94.24
18022;BME280;9136;48.822;7.966;2023-04-07T11:21:28;100178.78;;;12.73;99.22
18022;BME280;9136;48.822;7.966;2023-04-07T11:24:46;100178.09;;;12.90;97.24
18022;BME280;9136;48.822;7.966;2023-04-07T11:27:43;100165.28;;;12.81;93.08
18022;BME280;9136;48.822;7.966;2023-04-07T11:30:47;100186.66;;;12.95;95.46
18022;BME280;9136;48.822;7.966;2023-04-07T11:33:53;100180.19;;;12.82;100.00
18022;BME280;9136;48.822;7.966;2023-04-07T11:36:55;100177.59;;;12.60;96.14
18022;BME280;9136;48.822;7.966;2023-04-07T11:40:04;100175.34;;;12.51;96.00
18022;BME280;9136;48.822;7.966;2023-04-07T11:43:14;100199.84;;;12.75;98.41
18022;BME280;9136;48.822;7.966;2023-04-07T11:46:21;100191.00;;;12.76;93.62
18022;BME280;9136;48.822;7.966;2023-04-07T11:49:30;100207.31;;;13.06;95.47
18022;BME280;9136;48.822;7.966;2023-04-07T11:52:22;100186.00;;;13.10;85.58
18022;BME280;9136;48.822;7.966;2023-04-07T11:55:22;100202.16;;;13.03;82.63
18022;BME280;9136;48.822;7.966;2023-04-07T11:58:18;100197.22;;;12.53;99.83
18022;BME280;9136;48.822;7.966;2023-04-07T12:01:37;100197.66;;;11.98;100.00
18022;BME280;9136;48.822;7.966;2023-04-07T12:04:33;100198.81;;;11.91;100.00
18022;BME280;9136;48.822;7.966;2023-04-07T12:07:34;100185.41;;;11.51;100.00
18022;BME280;9136;48.822;7.966;2023-04-07T12:10:34;100179.59;;;11.17;100.00
18022;BME280;9136;48.822;7.966;2023-04-07T12:13:53;100182.66;;;11.05;100.00
18022;BME280;9136;48.822;7.966;2023-04-07T12:16:52;100181.22;;;10.97;100.00
18022;BME280;9136;48.822;7.966;2023-04-07T12:19:45;100198.47;;;11.29;100.00
18022;BME280;9136;48.822;7.966;2023-04-07T12:22:49;100181.03;;;11.26;100.00
18022;BME280;9136;48.822;7.966;2023-04-07T12:25:41;100173.84;;;11.31;100.00
18022;BME280;9136;48.822;7.966;2023-04-07T12:28:51;100194.31;;;11.46;100.00
18022;BME280;9136;48.822;7.966;2023-04-07T12:31:40;100206.41;;;11.52;100.00
18022;BME280;9136;48.822;7.966;2023-04-07T12:34:43;100191.28;;;11.34;100.00
18022;BME280;9136;48.822;7.966;2023-04-07T12:37:47;100212.19;;;11.37;100.00
18022;BME280;9136;48.822;7.966;2023-04-07T12:40:41;100193.28;;;11.02;100.00
18022;BME280;9136;48.822;7.966;2023-04-07T12:43:32;100207.13;;;10.82;100.00
18022;BME280;9136;48.822;7.966;2023-04-07T12:46:20;100214.50;;;10.45;100.00
18022;BME280;9136;48.822;7.966;2023-04-07T12:49:08;100228.34;;;10.22;100.00
18022;BME280;9136;48.822;7.966;2023-04-07T12:51:55;100214.41;;;8.97;100.00
18022;BME280;9136;48.822;7.966;2023-04-07T12:54:44;100210.31;;;8.53;100.00
18022;BME280;9136;48.822;7.966;2023-04-07T12:57:33;100192.06;;;8.48;100.00
18022;BME280;9136;48.822;7.966;2023-04-07T13:00:21;100205.16;;;8.50;100.00
18022;BME280;9136;48.822;7.966;2023-04-07T13:03:10;100220.38;;;8.70;100.00
18022;BME280;9136;48.822;7.966;2023-04-07T13:06:00;100201.88;;;8.76;100.00
18022;BME280;9136;48.822;7.966;2023-04-07T13:08:49;100204.25;;;8.85;100.00
18022;BME280;9136;48.822;7.966;2023-04-07T13:11:37;100205.72;;;8.95;100.00
18022;BME280;9136;48.822;7.966;2023-04-07T13:14:26;100205.47;;;9.04;100.00
18022;BME280;9136;48.822;7.966;2023-04-07T13:17:14;100217.59;;;9.41;100.00
18022;BME280;9136;48.822;7.966;2023-04-07T13:20:03;100206.09;;;9.76;100.00
18022;BME280;9136;48.822;7.966;2023-04-07T13:22:51;100227.38;;;10.52;100.00
18022;BME280;9136;48.822;7.966;2023-04-07T13:25:38;100200.72;;;10.89;100.00
18022;BME280;9136;48.822;7.966;2023-04-07T13:28:26;100191.50;;;11.28;100.00
18022;BME280;9136;48.822;7.966;2023-04-07T13:31:16;100201.09;;;12.00;100.00
18022;BME280;9136;48.822;7.966;2023-04-07T13:34:03;100203.69;;;12.46;100.00
18022;BME280;9136;48.822;7.966;2023-04-07T13:36:51;100228.09;;;12.71;100.00
18022;BME280;9136;48.822;7.966;2023-04-07T13:39:39;100218.91;;;12.16;100.00
18022;BME280;9136;48.822;7.966;2023-04-07T13:42:27;100195.63;;;12.49;100.00
18022;BME280;9136;48.822;7.966;2023-04-07T13:45:14;100219.16;;;12.31;100.00
18022;BME280;9136;48.822;7.966;2023-04-07T13:48:04;100214.69;;;12.12;100.00
18022;BME280;9136;48.822;7.966;2023-04-07T13:50:52;100214.84;;;12.73;100.00
18022;BME280;9136;48.822;7.966;2023-04-07T13:53:40;100196.63;;;13.29;100.00
18022;BME280;9136;48.822;7.966;2023-04-07T13:56:27;100201.28;;;12.82;100.00
18022;BME280;9136;48.822;7.966;2023-04-07T13:59:16;100219.97;;;12.33;100.00
18022;BME280;9136;48.822;7.966;2023-04-07T14:02:04;100226.50;;;11.05;100.00
18022;BME280;9136;48.822;7.966;2023-04-07T14:04:54;100199.78;;;10.92;100.00
18022;BME280;9136;48.822;7.966;2023-04-07T14:07:43;100215.47;;;11.20;100.00
18022;BME280;9136;48.822;7.966;2023-04-07T14:10:32;100221.38;;;11.73;100.00
18022;BME280;9136;48.822;7.966;2023-04-07T14:13:21;100204.22;;;11.63;100.00
18022;BME280;9136;48.822;7.966;2023-04-07T14:16:10;100207.28;;;12.21;100.00
18022;BME280;9136;48.822;7.966;2023-04-07T14:18:58;100220.50;;;12.42;100.00
18022;BME280;9136;48.822;7.966;2023-04-07T14:21:49;100216.81;;;14.07;100.00
18022;BME280;9136;48.822;7.966;2023-04-07T14:24:36;100217.22;;;14.72;100.00
18022;BME280;9136;48.822;7.966;2023-04-07T14:27:24;100194.06;;;14.77;100.00
18022;BME280;9136;48.822;7.966;2023-04-07T14:30:15;100201.94;;;14.23;100.00
18022;BME280;9136;48.822;7.966;2023-04-07T14:33:05;100218.25;;;13.77;100.00
18022;BME280;9136;48.822;7.966;2023-04-07T14:35:53;100194.94;;;13.47;100.00
18022;BME280;9136;48.822;7.966;2023-04-07T14:38:42;100217.03;;;13.84;100.00
18022;BME280;9136;48.822;7.966;2023-04-07T14:41:32;100199.34;;;13.86;100.00
18022;BME280;9136;48.822;7.966;2023-04-07T14:44:20;100192.34;;;13.85;100.00
18022;BME280;9136;48.822;7.966;2023-04-07T14:47:10;100200.41;;;14.37;100.00
18022;BME280;9136;48.822;7.966;2023-04-07T14:49:57;100209.22;;;14.18;100.00
18022;BME280;9136;48.822;7.966;2023-04-07T14:52:46;100205.53;;;14.22;100.00
18022;BME280;9136;48.822;7.966;2023-04-07T14:55:36;100212.47;;;14.61;100.00
18022;BME280;9136;48.822;7.966;2023-04-07T14:58:26;100201.38;;;13.60;100.00
18022;BME280;9136;48.822;7.966;2023-04-07T15:01:14;100204.56;;;13.48;100.00
18022;BME280;9136;48.822;7.966;2023-04-07T15:04:02;100195.69;;;13.10;100.00
18022;BME280;9136;48.822;7.966;2023-04-07T15:07:00;100210.91;;;12.83;100.00
18022;BME280;9136;48.822;7.966;2023-04-07T15:09:51;100219.94;;;12.77;100.00
18022;BME280;9136;48.822;7.966;2023-04-07T15:12:40;100229.47;;;12.59;100.00